sensor_id;sensor_type;location;lat;lon;timestamp;P1;P2;P0
62631;PMS5003;48703;51.248;-0.546;2023-11-21T00:01:59;3.61;3.41;
62631;PMS5003;48703;51.248;-0.546;2023-11-21T00:05:00;5.51;4.49;
62631;PMS5003;48703;51.248;-0.546;2023-11-21T00:08:02;5.86;4.61;
62631;PMS5003;48703;51.248;-0.546;2023-11-21T00:11:04;3.77;3.77;
62631;PMS5003;48703;51.248;-0.546;2023-11-21T00:14:05;4.54;3.94;
62631;PMS5003;48703;51.248;-0.546;2023-11-21T00:17:07;4.09;3.70;
62631;PMS5003;48703;51.248;-0.546;2023-11-21T00:20:09;3.83;3.83;
62631;PMS5003;48703;51.248;-0.546;2023-11-21T00:23:10;6.03;4.83;
62631;PMS5003;48703;51.248;-0.546;2023-11-21T00:26:12;4.86;4.46;
62631;PMS5003;48703;51.248;-0.546;2023-11-21T00:29:13;5.41;4.86;
62631;PMS5003;48703;51.248;-0.546;2023-11-21T00:32:15;4.39;3.97;
62631;PMS5003;48703;51.248;-0.546;2023-11-21T00:35:16;5.77;5.30;
62631;PMS5003;48703;51.248;-0.546;2023-11-21T00:38:18;3.84;3.84;
62631;PMS5003;48703;51.248;-0.546;2023-11-21T00:41:20;6.47;5.11;
62631;PMS5003;48703;51.248;-0.546;2023-11-21T00:44:21;4.91;4.91;
62631;PMS5003;48703;51.248;-0.546;2023-11-21T00:47:23;5.77;4.63;
62631;PMS5003;48703;51.248;-0.546;2023-11-21T00:50:25;6.34;5.71;
62631;PMS5003;48703;51.248;-0.546;2023-11-21T00:53:26;5.73;5.73;
62631;PMS5003;48703;51.248;-0.546;2023-11-21T00:56:28;6.19;6.06;
62631;PMS5003;48703;51.248;-0.546;2023-11-21T00:59:29;5.87;5.87;
62631;PMS5003;48703;51.248;-0.546;2023-11-21T01:02:31;5.71;4.61;
62631;PMS5003;48703;51.248;-0.546;2023-11-21T01:05:33;7.81;5.71;
62631;PMS5003;48703;51.248;-0.546;2023-11-21T01:08:34;6.10;6.10;
62631;PMS5003;48703;51.248;-0.546;2023-11-21T01:11:36;6.07;5.83;
62631;PMS5003;48703;51.248;-0.546;2023-11-21T01:14:38;6.17;6.17;
62631;PMS5003;48703;51.248;-0.546;2023-11-21T01:17:39;7.53;6.31;
62631;PMS5003;48703;51.248;-0.546;2023-11-21T01:20:41;7.80;6.06;
62631;PMS5003;48703;51.248;-0.546;2023-11-21T01:23:42;8.16;7.13;
62631;PMS5003;48703;51.248;-0.546;2023-11-21T01:26:44;6.69;6.56;
62631;PMS5003;48703;51.248;-0.546;2023-11-21T01:29:45;7.86;7.39;
62631;PMS5003;48703;51.248;-0.546;2023-11-21T01:32:47;7.83;7.57;
62631;PMS5003;48703;51.248;-0.546;2023-11-21T01:35:48;8.16;7.21;
62631;PMS5003;48703;51.248;-0.546;2023-11-21T01:38:50;7.63;6.71;
62631;PMS5003;48703;51.248;-0.546;2023-11-21T01:41:52;8.64;7.67;
62631;PMS5003;48703;51.248;-0.546;2023-11-21T01:44:53;8.51;8.17;
62631;PMS5003;48703;51.248;-0.546;2023-11-21T01:47:55;9.56;7.93;
62631;PMS5003;48703;51.248;-0.546;2023-11-21T01:50:56;7.20;6.89;
62631;PMS5003;48703;51.248;-0.546;2023-11-21T01:53:58;7.51;7.51;
62631;PMS5003;48703;51.248;-0.546;2023-11-21T01:57:00;9.61;8.33;
62631;PMS5003;48703;51.248;-0.546;2023-11-21T02:00:02;7.41;7.16;
62631;PMS5003;48703;51.248;-0.546;2023-11-21T02:03:03;9.66;8.70;
62631;PMS5003;48703;51.248;-0.546;2023-11-21T02:06:05;8.57;7.71;
62631;PMS5003;48703;51.248;-0.546;2023-11-21T02:09:06;11.94;10.30;
62631;PMS5003;48703;51.248;-0.546;2023-11-21T02:12:08;8.97;8.51;
62631;PMS5003;48703;51.248;-0.546;2023-11-21T02:15:10;11.03;9.54;
62631;PMS5003;48703;51.248;-0.546;2023-11-21T02:18:11;9.96;9.00;
62631;PMS5003;48703;51.248;-0.546;2023-11-21T02:21:12;11.06;9.31;
62631;PMS5003;48703;51.248;-0.546;2023-11-21T02:24:13;10.80;10.14;
62631;PMS5003;48703;51.248;-0.546;2023-11-21T02:27:15;11.56;10.36;
62631;PMS5003;48703;51.248;-0.546;2023-11-21T02:30:16;10.46;9.73;
62631;PMS5003;48703;51.248;-0.546;2023-11-21T02:33:18;10.27;9.77;
62631;PMS5003;48703;51.248;-0.546;2023-11-21T02:36:20;10.36;9.60;
62631;PMS5003;48703;51.248;-0.546;2023-11-21T02:39:21;11.31;10.66;
62631;PMS5003;48703;51.248;-0.546;2023-11-21T02:42:23;11.21;9.17;
62631;PMS5003;48703;51.248;-0.546;2023-11-21T02:45:24;11.86;11.13;
62631;PMS5003;48703;51.248;-0.546;2023-11-21T02:48:26;10.66;10.19;
62631;PMS5003;48703;51.248;-0.546;2023-11-21T02:51:27;10.90;10.12;
62631;PMS5003;48703;51.248;-0.546;2023-11-21T02:54:29;9.47;9.47;
62631;PMS5003;48703;51.248;-0.546;2023-11-21T02:57:30;10.40;9.51;
62631;PMS5003;48703;51.248;-0.546;2023-11-21T03:00:32;10.77;9.87;
62631;PMS5003;48703;51.248;-0.546;2023-11-21T03:03:34;13.06;11.04;
62631;PMS5003;48703;51.248;-0.546;2023-11-21T03:06:35;11.14;10.26;
62631;PMS5003;48703;51.248;-0.546;2023-11-21T03:09:37;10.83;10.50;
62631;PMS5003;48703;51.248;-0.546;2023-11-21T03:12:38;11.12;9.77;
62631;PMS5003;48703;51.248;-0.546;2023-11-21T03:15:40;10.27;9.27;
62631;PMS5003;48703;51.248;-0.546;2023-11-21T03:18:41;10.14;9.33;
62631;PMS5003;48703;51.248;-0.546;2023-11-21T03:21:43;11.30;9.10;
62631;PMS5003;48703;51.248;-0.546;2023-11-21T03:24:45;11.14;9.87;
62631;PMS5003;48703;51.248;-0.546;2023-11-21T03:27:46;10.53;10.01;
62631;PMS5003;48703;51.248;-0.546;2023-11-21T03:30:47;10.61;10.03;
62631;PMS5003;48703;51.248;-0.546;2023-11-21T03:33:49;12.00;10.76;
62631;PMS5003;48703;51.248;-0.546;2023-11-21T03:36:51;11.93;10.34;
62631;PMS5003;48703;51.248;-0.546;2023-11-21T03:39:52;11.17;10.07;
62631;PMS5003;48703;51.248;-0.546;2023-11-21T03:42:54;11.89;9.97;
62631;PMS5003;48703;51.248;-0.546;2023-11-21T03:45:55;11.21;9.80;
62631;PMS5003;48703;51.248;-0.546;2023-11-21T03:48:57;9.30;8.54;
62631;PMS5003;48703;51.248;-0.546;2023-11-21T03:51:59;12.06;11.23;
62631;PMS5003;48703;51.248;-0.546;2023-11-21T03:55:00;10.39;9.91;
62631;PMS5003;48703;51.248;-0.546;2023-11-21T03:58:02;9.99;8.61;
62631;PMS5003;48703;51.248;-0.546;2023-11-21T04:01:03;8.89;7.90;
62631;PMS5003;48703;51.248;-0.546;2023-11-21T04:04:04;9.61;9.47;
62631;PMS5003;48703;51.248;-0.546;2023-11-21T04:07:06;10.94;9.77;
62631;PMS5003;48703;51.248;-0.546;2023-11-21T04:10:08;10.20;10.09;
62631;PMS5003;48703;51.248;-0.546;2023-11-21T04:13:09;8.19;8.19;
62631;PMS5003;48703;51.248;-0.546;2023-11-21T04:16:11;10.06;9.11;
62631;PMS5003;48703;51.248;-0.546;2023-11-21T04:19:12;9.39;8.09;
62631;PMS5003;48703;51.248;-0.546;2023-11-21T04:22:14;9.60;8.49;
62631;PMS5003;48703;51.248;-0.546;2023-11-21T04:25:15;9.54;8.46;
62631;PMS5003;48703;51.248;-0.546;2023-11-21T04:28:17;7.60;7.60;
62631;PMS5003;48703;51.248;-0.546;2023-11-21T04:31:19;9.93;8.73;
62631;PMS5003;48703;51.248;-0.546;2023-11-21T04:34:20;6.49;6.49;
62631;PMS5003;48703;51.248;-0.546;2023-11-21T04:37:21;7.94;7.39;
62631;PMS5003;48703;51.248;-0.546;2023-11-21T04:40:23;5.53;5.53;
62631;PMS5003;48703;51.248;-0.546;2023-11-21T04:43:25;7.04;5.44;
62631;PMS5003;48703;51.248;-0.546;2023-11-21T04:46:26;5.21;4.87;
62631;PMS5003;48703;51.248;-0.546;2023-11-21T04:49:28;3.86;3.86;
62631;PMS5003;48703;51.248;-0.546;2023-11-21T04:52:29;3.20;2.94;
62631;PMS5003;48703;51.248;-0.546;2023-11-21T04:55:31;1.94;1.94;
62631;PMS5003;48703;51.248;-0.546;2023-11-21T04:58:33;1.56;1.56;
62631;PMS5003;48703;51.248;-0.546;2023-11-21T05:01:34;2.59;2.01;
62631;PMS5003;48703;51.248;-0.546;2023-11-21T05:04:36;1.71;1.71;
62631;PMS5003;48703;51.248;-0.546;2023-11-21T05:07:38;1.31;1.27;
62631;PMS5003;48703;51.248;-0.546;2023-11-21T05:10:39;1.69;1.69;
62631;PMS5003;48703;51.248;-0.546;2023-11-21T05:13:41;1.56;1.56;
62631;PMS5003;48703;51.248;-0.546;2023-11-21T05:16:42;1.43;1.43;
62631;PMS5003;48703;51.248;-0.546;2023-11-21T05:19:44;1.23;1.23;
62631;PMS5003;48703;51.248;-0.546;2023-11-21T05:22:46;1.81;1.51;
62631;PMS5003;48703;51.248;-0.546;2023-11-21T05:25:47;1.10;1.10;
62631;PMS5003;48703;51.248;-0.546;2023-11-21T05:28:49;1.29;1.29;
62631;PMS5003;48703;51.248;-0.546;2023-11-21T05:31:51;2.16;1.69;
62631;PMS5003;48703;51.248;-0.546;2023-11-21T05:34:52;2.19;1.97;
62631;PMS5003;48703;51.248;-0.546;2023-11-21T05:37:54;2.19;2.19;
62631;PMS5003;48703;51.248;-0.546;2023-11-21T05:40:55;2.53;2.47;
62631;PMS5003;48703;51.248;-0.546;2023-11-21T05:43:57;1.99;1.99;
62631;PMS5003;48703;51.248;-0.546;2023-11-21T05:46:59;1.90;1.90;
62631;PMS5003;48703;51.248;-0.546;2023-11-21T05:50:00;1.40;1.34;
62631;PMS5003;48703;51.248;-0.546;2023-11-21T05:53:02;1.70;1.70;
62631;PMS5003;48703;51.248;-0.546;2023-11-21T05:56:04;2.83;1.67;
62631;PMS5003;48703;51.248;-0.546;2023-11-21T05:59:05;1.69;1.69;
62631;PMS5003;48703;51.248;-0.546;2023-11-21T06:02:07;2.39;2.39;
62631;PMS5003;48703;51.248;-0.546;2023-11-21T06:05:08;2.26;2.26;
62631;PMS5003;48703;51.248;-0.546;2023-11-21T06:08:10;2.26;2.26;
62631;PMS5003;48703;51.248;-0.546;2023-11-21T06:11:12;2.21;2.21;
62631;PMS5003;48703;51.248;-0.546;2023-11-21T06:14:13;2.70;1.89;
62631;PMS5003;48703;51.248;-0.546;2023-11-21T06:17:15;3.59;3.11;
62631;PMS5003;48703;51.248;-0.546;2023-11-21T06:20:16;3.57;3.19;
62631;PMS5003;48703;51.248;-0.546;2023-11-21T06:23:18;2.70;2.56;
62631;PMS5003;48703;51.248;-0.546;2023-11-21T06:26:20;3.30;3.30;
62631;PMS5003;48703;51.248;-0.546;2023-11-21T06:29:21;3.81;3.30;
62631;PMS5003;48703;51.248;-0.546;2023-11-21T06:32:23;2.29;2.16;
62631;PMS5003;48703;51.248;-0.546;2023-11-21T06:35:25;3.63;2.77;
62631;PMS5003;48703;51.248;-0.546;2023-11-21T06:38:26;2.89;2.89;
62631;PMS5003;48703;51.248;-0.546;2023-11-21T06:41:28;3.50;3.07;
62631;PMS5003;48703;51.248;-0.546;2023-11-21T06:44:30;3.03;2.86;
62631;PMS5003;48703;51.248;-0.546;2023-11-21T06:47:31;3.46;2.86;
62631;PMS5003;48703;51.248;-0.546;2023-11-21T06:50:33;3.89;2.73;
62631;PMS5003;48703;51.248;-0.546;2023-11-21T06:53:35;3.17;3.17;
62631;PMS5003;48703;51.248;-0.546;2023-11-21T06:56:36;3.41;3.41;
62631;PMS5003;48703;51.248;-0.546;2023-11-21T06:59:38;5.44;4.03;
62631;PMS5003;48703;51.248;-0.546;2023-11-21T07:02:39;4.16;3.73;
62631;PMS5003;48703;51.248;-0.546;2023-11-21T07:05:41;3.07;3.07;
62631;PMS5003;48703;51.248;-0.546;2023-11-21T07:08:43;3.79;3.36;
62631;PMS5003;48703;51.248;-0.546;2023-11-21T07:11:44;3.03;2.90;
62631;PMS5003;48703;51.248;-0.546;2023-11-21T07:14:46;2.14;2.13;
62631;PMS5003;48703;51.248;-0.546;2023-11-21T07:17:48;2.60;2.20;
62631;PMS5003;48703;51.248;-0.546;2023-11-21T07:20:49;2.64;2.60;
62631;PMS5003;48703;51.248;-0.546;2023-11-21T07:23:51;2.11;2.11;
62631;PMS5003;48703;51.248;-0.546;2023-11-21T07:26:53;2.34;2.34;
62631;PMS5003;48703;51.248;-0.546;2023-11-21T07:29:54;2.33;2.33;
62631;PMS5003;48703;51.248;-0.546;2023-11-21T07:32:56;2.10;1.84;
62631;PMS5003;48703;51.248;-0.546;2023-11-21T07:35:57;3.16;2.70;
62631;PMS5003;48703;51.248;-0.546;2023-11-21T07:38:59;2.29;2.29;
62631;PMS5003;48703;51.248;-0.546;2023-11-21T07:42:01;2.11;1.77;
62631;PMS5003;48703;51.248;-0.546;2023-11-21T07:45:03;1.20;1.20;
62631;PMS5003;48703;51.248;-0.546;2023-11-21T07:48:04;2.50;2.04;
62631;PMS5003;48703;51.248;-0.546;2023-11-21T07:51:06;2.04;1.79;
62631;PMS5003;48703;51.248;-0.546;2023-11-21T07:54:07;2.67;2.29;
62631;PMS5003;48703;51.248;-0.546;2023-11-21T07:57:09;1.91;1.66;
62631;PMS5003;48703;51.248;-0.546;2023-11-21T08:00:11;0.96;0.96;
62631;PMS5003;48703;51.248;-0.546;2023-11-21T08:03:13;1.66;1.57;
62631;PMS5003;48703;51.248;-0.546;2023-11-21T08:06:14;1.86;1.54;
62631;PMS5003;48703;51.248;-0.546;2023-11-21T08:09:16;1.67;1.67;
62631;PMS5003;48703;51.248;-0.546;2023-11-21T08:12:17;1.49;1.49;
62631;PMS5003;48703;51.248;-0.546;2023-11-21T08:15:19;2.09;1.66;
62631;PMS5003;48703;51.248;-0.546;2023-11-21T08:18:21;1.80;1.54;
62631;PMS5003;48703;51.248;-0.546;2023-11-21T08:21:22;1.77;1.56;
62631;PMS5003;48703;51.248;-0.546;2023-11-21T08:24:24;1.94;1.94;
62631;PMS5003;48703;51.248;-0.546;2023-11-21T08:27:26;1.37;1.37;
62631;PMS5003;48703;51.248;-0.546;2023-11-21T08:30:27;2.33;2.04;
62631;PMS5003;48703;51.248;-0.546;2023-11-21T08:33:29;2.11;2.11;
62631;PMS5003;48703;51.248;-0.546;2023-11-21T08:36:30;2.37;2.37;
62631;PMS5003;48703;51.248;-0.546;2023-11-21T08:39:32;1.87;1.87;
62631;PMS5003;48703;51.248;-0.546;2023-11-21T08:42:34;2.87;2.87;
62631;PMS5003;48703;51.248;-0.546;2023-11-21T08:45:35;1.86;1.86;
62631;PMS5003;48703;51.248;-0.546;2023-11-21T08:48:37;3.04;2.44;
62631;PMS5003;48703;51.248;-0.546;2023-11-21T08:51:39;3.26;3.16;
62631;PMS5003;48703;51.248;-0.546;2023-11-21T08:54:40;2.56;2.56;
62631;PMS5003;48703;51.248;-0.546;2023-11-21T08:57:43;3.39;2.49;
62631;PMS5003;48703;51.248;-0.546;2023-11-21T09:00:44;3.33;3.33;
62631;PMS5003;48703;51.248;-0.546;2023-11-21T09:03:45;2.63;2.37;
62631;PMS5003;48703;51.248;-0.546;2023-11-21T09:06:47;2.69;2.53;
62631;PMS5003;48703;51.248;-0.546;2023-11-21T09:09:48;2.80;2.80;
62631;PMS5003;48703;51.248;-0.546;2023-11-21T09:12:50;2.04;2.04;
62631;PMS5003;48703;51.248;-0.546;2023-11-21T09:15:52;2.59;2.46;
62631;PMS5003;48703;51.248;-0.546;2023-11-21T09:18:53;1.87;1.67;
62631;PMS5003;48703;51.248;-0.546;2023-11-21T09:21:55;2.17;2.17;
62631;PMS5003;48703;51.248;-0.546;2023-11-21T09:24:57;1.34;1.34;
62631;PMS5003;48703;51.248;-0.546;2023-11-21T09:27:58;1.79;1.79;
62631;PMS5003;48703;51.248;-0.546;2023-11-21T09:31:00;2.29;2.29;
62631;PMS5003;48703;51.248;-0.546;2023-11-21T09:34:01;2.33;2.09;
62631;PMS5003;48703;51.248;-0.546;2023-11-21T09:37:03;2.59;2.04;
62631;PMS5003;48703;51.248;-0.546;2023-11-21T09:40:06;2.40;2.07;
62631;PMS5003;48703;51.248;-0.546;2023-11-21T09:43:07;1.71;1.71;
62631;PMS5003;48703;51.248;-0.546;2023-11-21T09:46:08;1.97;1.97;
62631;PMS5003;48703;51.248;-0.546;2023-11-21T09:49:10;1.14;1.14;
62631;PMS5003;48703;51.248;-0.546;2023-11-21T09:52:11;2.34;2.06;
62631;PMS5003;48703;51.248;-0.546;2023-11-21T09:55:13;2.49;1.47;
62631;PMS5003;48703;51.248;-0.546;2023-11-21T09:58:15;1.36;1.36;
62631;PMS5003;48703;51.248;-0.546;2023-11-21T10:01:16;2.64;1.63;
62631;PMS5003;48703;51.248;-0.546;2023-11-21T10:04:18;2.16;1.96;
62631;PMS5003;48703;51.248;-0.546;2023-11-21T10:07:20;2.59;2.59;
62631;PMS5003;48703;51.248;-0.546;2023-11-21T10:10:21;1.70;1.70;
62631;PMS5003;48703;51.248;-0.546;2023-11-21T10:13:23;2.50;2.50;
62631;PMS5003;48703;51.248;-0.546;2023-11-21T10:16:25;2.00;1.67;
62631;PMS5003;48703;51.248;-0.546;2023-11-21T10:19:26;1.34;1.34;
62631;PMS5003;48703;51.248;-0.546;2023-11-21T10:22:28;1.40;1.16;
62631;PMS5003;48703;51.248;-0.546;2023-11-21T10:25:29;2.71;2.03;
62631;PMS5003;48703;51.248;-0.546;2023-11-21T10:28:34;2.06;1.76;
62631;PMS5003;48703;51.248;-0.546;2023-11-21T10:31:33;3.53;2.24;
62631;PMS5003;48703;51.248;-0.546;2023-11-21T10:34:34;1.90;1.77;
62631;PMS5003;48703;51.248;-0.546;2023-11-21T10:37:35;2.34;2.33;
62631;PMS5003;48703;51.248;-0.546;2023-11-21T10:40:37;1.71;1.71;
62631;PMS5003;48703;51.248;-0.546;2023-11-21T10:43:39;1.70;1.70;
62631;PMS5003;48703;51.248;-0.546;2023-11-21T10:46:40;1.40;1.40;
62631;PMS5003;48703;51.248;-0.546;2023-11-21T10:49:42;2.04;1.74;
62631;PMS5003;48703;51.248;-0.546;2023-11-21T10:52:44;2.20;1.47;
62631;PMS5003;48703;51.248;-0.546;2023-11-21T10:55:45;1.11;1.11;
62631;PMS5003;48703;51.248;-0.546;2023-11-21T10:58:47;1.13;1.13;
62631;PMS5003;48703;51.248;-0.546;2023-11-21T11:01:48;1.94;1.30;
62631;PMS5003;48703;51.248;-0.546;2023-11-21T11:04:50;2.33;1.94;
62631;PMS5003;48703;51.248;-0.546;2023-11-21T11:07:53;2.49;1.89;
62631;PMS5003;48703;51.248;-0.546;2023-11-21T11:10:53;2.44;2.43;
62631;PMS5003;48703;51.248;-0.546;2023-11-21T11:13:55;1.99;1.99;
62631;PMS5003;48703;51.248;-0.546;2023-11-21T11:16:57;3.00;2.74;
62631;PMS5003;48703;51.248;-0.546;2023-11-21T11:19:58;3.74;3.74;
62631;PMS5003;48703;51.248;-0.546;2023-11-21T11:23:07;4.06;3.99;
62631;PMS5003;48703;51.248;-0.546;2023-11-21T11:26:06;3.44;2.84;
62631;PMS5003;48703;51.248;-0.546;2023-11-21T11:29:04;2.41;2.03;
62631;PMS5003;48703;51.248;-0.546;2023-11-21T11:32:08;1.91;1.91;
62631;PMS5003;48703;51.248;-0.546;2023-11-21T11:35:07;2.24;1.77;
62631;PMS5003;48703;51.248;-0.546;2023-11-21T11:38:08;2.29;1.86;
62631;PMS5003;48703;51.248;-0.546;2023-11-21T11:41:09;2.67;2.19;
62631;PMS5003;48703;51.248;-0.546;2023-11-21T11:44:45;2.63;1.94;
62631;PMS5003;48703;51.248;-0.546;2023-11-21T11:47:13;1.90;1.47;
62631;PMS5003;48703;51.248;-0.546;2023-11-21T11:50:14;1.34;1.34;
62631;PMS5003;48703;51.248;-0.546;2023-11-21T11:53:16;1.57;1.57;
62631;PMS5003;48703;51.248;-0.546;2023-11-21T11:56:20;1.54;1.23;
62631;PMS5003;48703;51.248;-0.546;2023-11-21T11:59:20;2.49;2.23;
62631;PMS5003;48703;51.248;-0.546;2023-11-21T12:02:22;2.09;2.09;
62631;PMS5003;48703;51.248;-0.546;2023-11-21T12:05:23;2.97;2.33;
62631;PMS5003;48703;51.248;-0.546;2023-11-21T12:08:25;1.56;1.30;
62631;PMS5003;48703;51.248;-0.546;2023-11-21T12:11:30;1.63;1.40;
62631;PMS5003;48703;51.248;-0.546;2023-11-21T12:14:28;1.94;1.94;
62631;PMS5003;48703;51.248;-0.546;2023-11-21T12:17:29;1.81;1.81;
62631;PMS5003;48703;51.248;-0.546;2023-11-21T12:20:31;1.43;1.43;
62631;PMS5003;48703;51.248;-0.546;2023-11-21T12:23:33;1.36;0.93;
62631;PMS5003;48703;51.248;-0.546;2023-11-21T12:26:34;2.67;2.03;
62631;PMS5003;48703;51.248;-0.546;2023-11-21T12:29:36;2.09;2.09;
62631;PMS5003;48703;51.248;-0.546;2023-11-21T12:32:37;2.06;2.06;
62631;PMS5003;48703;51.248;-0.546;2023-11-21T12:35:40;2.09;1.14;
62631;PMS5003;48703;51.248;-0.546;2023-11-21T12:38:41;2.46;2.46;
62631;PMS5003;48703;51.248;-0.546;2023-11-21T12:41:42;1.97;1.97;
62631;PMS5003;48703;51.248;-0.546;2023-11-21T12:44:45;2.66;2.66;
62631;PMS5003;48703;51.248;-0.546;2023-11-21T12:47:46;3.21;3.21;
62631;PMS5003;48703;51.248;-0.546;2023-11-21T12:50:47;3.21;3.21;
62631;PMS5003;48703;51.248;-0.546;2023-11-21T12:53:49;2.33;2.33;
62631;PMS5003;48703;51.248;-0.546;2023-11-21T12:56:50;4.14;3.67;
62631;PMS5003;48703;51.248;-0.546;2023-11-21T12:59:52;2.93;2.89;
62631;PMS5003;48703;51.248;-0.546;2023-11-21T13:02:54;3.89;3.74;
62631;PMS5003;48703;51.248;-0.546;2023-11-21T13:05:55;3.96;3.74;
62631;PMS5003;48703;51.248;-0.546;2023-11-21T13:08:57;3.64;3.46;
62631;PMS5003;48703;51.248;-0.546;2023-11-21T13:12:00;3.40;3.30;
62631;PMS5003;48703;51.248;-0.546;2023-11-21T13:15:03;5.07;3.70;
62631;PMS5003;48703;51.248;-0.546;2023-11-21T13:18:01;4.33;4.20;
62631;PMS5003;48703;51.248;-0.546;2023-11-21T13:21:04;4.51;4.41;
62631;PMS5003;48703;51.248;-0.546;2023-11-21T13:24:05;4.16;3.79;
62631;PMS5003;48703;51.248;-0.546;2023-11-21T13:27:06;3.89;3.66;
62631;PMS5003;48703;51.248;-0.546;2023-11-21T13:30:08;3.63;3.06;
62631;PMS5003;48703;51.248;-0.546;2023-11-21T13:33:10;4.17;4.13;
62631;PMS5003;48703;51.248;-0.546;2023-11-21T13:36:11;3.10;2.76;
62631;PMS5003;48703;51.248;-0.546;2023-11-21T13:39:13;1.86;1.86;
62631;PMS5003;48703;51.248;-0.546;2023-11-21T13:42:14;2.29;1.81;
62631;PMS5003;48703;51.248;-0.546;2023-11-21T13:45:16;2.39;1.84;
62631;PMS5003;48703;51.248;-0.546;2023-11-21T13:48:18;2.63;2.29;
62631;PMS5003;48703;51.248;-0.546;2023-11-21T13:51:19;2.19;2.19;
62631;PMS5003;48703;51.248;-0.546;2023-11-21T13:54:21;2.27;2.27;
62631;PMS5003;48703;51.248;-0.546;2023-11-21T13:57:23;2.11;2.11;
62631;PMS5003;48703;51.248;-0.546;2023-11-21T14:00:24;1.60;1.33;
62631;PMS5003;48703;51.248;-0.546;2023-11-21T14:03:26;1.49;0.71;
62631;PMS5003;48703;51.248;-0.546;2023-11-21T14:06:28;1.39;0.77;
62631;PMS5003;48703;51.248;-0.546;2023-11-21T14:09:29;0.51;0.51;
62631;PMS5003;48703;51.248;-0.546;2023-11-21T14:12:31;1.33;0.51;
62631;PMS5003;48703;51.248;-0.546;2023-11-21T14:15:32;0.63;0.50;
62631;PMS5003;48703;51.248;-0.546;2023-11-21T14:18:34;0.04;0.04;
62631;PMS5003;48703;51.248;-0.546;2023-11-21T14:21:35;0.57;0.44;
62631;PMS5003;48703;51.248;-0.546;2023-11-21T14:24:37;0.23;0.07;
62631;PMS5003;48703;51.248;-0.546;2023-11-21T14:27:39;0.73;0.73;
62631;PMS5003;48703;51.248;-0.546;2023-11-21T14:30:40;1.56;1.09;
62631;PMS5003;48703;51.248;-0.546;2023-11-21T14:33:42;1.71;1.29;
62631;PMS5003;48703;51.248;-0.546;2023-11-21T14:36:44;0.87;0.87;
62631;PMS5003;48703;51.248;-0.546;2023-11-21T14:39:45;1.39;1.00;
62631;PMS5003;48703;51.248;-0.546;2023-11-21T14:42:47;1.23;0.54;
62631;PMS5003;48703;51.248;-0.546;2023-11-21T14:45:48;1.77;1.17;
62631;PMS5003;48703;51.248;-0.546;2023-11-21T14:48:50;1.30;0.91;
62631;PMS5003;48703;51.248;-0.546;2023-11-21T14:51:53;1.77;1.04;
62631;PMS5003;48703;51.248;-0.546;2023-11-21T14:54:53;1.16;1.16;
62631;PMS5003;48703;51.248;-0.546;2023-11-21T14:57:55;2.24;1.86;
62631;PMS5003;48703;51.248;-0.546;2023-11-21T15:00:57;2.87;2.44;
62631;PMS5003;48703;51.248;-0.546;2023-11-21T15:03:58;2.60;1.66;
62631;PMS5003;48703;51.248;-0.546;2023-11-21T15:07:00;4.07;3.34;
62631;PMS5003;48703;51.248;-0.546;2023-11-21T15:10:01;2.79;2.06;
62631;PMS5003;48703;51.248;-0.546;2023-11-21T15:13:03;2.39;2.26;
62631;PMS5003;48703;51.248;-0.546;2023-11-21T15:16:05;3.57;2.03;
62631;PMS5003;48703;51.248;-0.546;2023-11-21T15:19:07;2.21;1.23;
62631;PMS5003;48703;51.248;-0.546;2023-11-21T15:22:08;1.46;1.46;
62631;PMS5003;48703;51.248;-0.546;2023-11-21T15:25:09;2.53;2.53;
62631;PMS5003;48703;51.248;-0.546;2023-11-21T15:28:11;2.13;1.46;
62631;PMS5003;48703;51.248;-0.546;2023-11-21T15:31:13;1.66;1.66;
62631;PMS5003;48703;51.248;-0.546;2023-11-21T15:34:14;1.24;1.24;
62631;PMS5003;48703;51.248;-0.546;2023-11-21T15:37:16;3.57;2.67;
62631;PMS5003;48703;51.248;-0.546;2023-11-21T15:40:17;2.47;1.77;
62631;PMS5003;48703;51.248;-0.546;2023-11-21T15:43:19;2.28;2.17;
62631;PMS5003;48703;51.248;-0.546;2023-11-21T15:46:20;2.89;1.84;
62631;PMS5003;48703;51.248;-0.546;2023-11-21T15:49:22;1.94;1.76;
62631;PMS5003;48703;51.248;-0.546;2023-11-21T15:52:24;3.13;2.61;
62631;PMS5003;48703;51.248;-0.546;2023-11-21T15:55:25;5.23;4.52;
62631;PMS5003;48703;51.248;-0.546;2023-11-21T15:58:27;4.83;4.10;
62631;PMS5003;48703;51.248;-0.546;2023-11-21T16:01:29;2.84;2.66;
62631;PMS5003;48703;51.248;-0.546;2023-11-21T16:04:30;2.94;2.86;
62631;PMS5003;48703;51.248;-0.546;2023-11-21T16:07:32;2.90;2.73;
62631;PMS5003;48703;51.248;-0.546;2023-11-21T16:10:33;2.77;2.13;
62631;PMS5003;48703;51.248;-0.546;2023-11-21T16:13:35;3.59;3.38;
62631;PMS5003;48703;51.248;-0.546;2023-11-21T16:16:36;3.41;2.64;
62631;PMS5003;48703;51.248;-0.546;2023-11-21T16:19:38;4.90;3.30;
62631;PMS5003;48703;51.248;-0.546;2023-11-21T16:22:40;2.89;1.70;
62631;PMS5003;48703;51.248;-0.546;2023-11-21T16:25:41;3.90;3.09;
62631;PMS5003;48703;51.248;-0.546;2023-11-21T16:28:43;3.23;3.21;
62631;PMS5003;48703;51.248;-0.546;2023-11-21T16:31:44;4.27;3.33;
62631;PMS5003;48703;51.248;-0.546;2023-11-21T16:34:47;3.31;2.54;
62631;PMS5003;48703;51.248;-0.546;2023-11-21T16:37:48;3.73;3.13;
62631;PMS5003;48703;51.248;-0.546;2023-11-21T16:40:49;2.97;2.33;
62631;PMS5003;48703;51.248;-0.546;2023-11-21T16:43:51;3.71;3.50;
62631;PMS5003;48703;51.248;-0.546;2023-11-21T16:46:52;3.74;3.16;
62631;PMS5003;48703;51.248;-0.546;2023-11-21T16:49:54;2.94;2.94;
62631;PMS5003;48703;51.248;-0.546;2023-11-21T16:52:56;3.51;2.84;
62631;PMS5003;48703;51.248;-0.546;2023-11-21T16:55:57;4.13;3.31;
62631;PMS5003;48703;51.248;-0.546;2023-11-21T16:58:59;3.70;3.23;
62631;PMS5003;48703;51.248;-0.546;2023-11-21T17:02:01;4.64;3.79;
62631;PMS5003;48703;51.248;-0.546;2023-11-21T17:05:03;3.39;3.17;
62631;PMS5003;48703;51.248;-0.546;2023-11-21T17:08:04;3.99;3.34;
62631;PMS5003;48703;51.248;-0.546;2023-11-21T17:11:06;5.03;3.89;
62631;PMS5003;48703;51.248;-0.546;2023-11-21T17:14:08;4.37;4.24;
62631;PMS5003;48703;51.248;-0.546;2023-11-21T17:17:08;4.54;3.63;
62631;PMS5003;48703;51.248;-0.546;2023-11-21T17:20:10;5.70;3.99;
62631;PMS5003;48703;51.248;-0.546;2023-11-21T17:23:12;3.86;3.51;
62631;PMS5003;48703;51.248;-0.546;2023-11-21T17:26:13;3.29;3.00;
62631;PMS5003;48703;51.248;-0.546;2023-11-21T17:29:15;5.21;3.60;
62631;PMS5003;48703;51.248;-0.546;2023-11-21T17:32:17;4.41;3.94;
62631;PMS5003;48703;51.248;-0.546;2023-11-21T17:35:18;4.59;3.99;
62631;PMS5003;48703;51.248;-0.546;2023-11-21T17:38:20;4.86;4.21;
62631;PMS5003;48703;51.248;-0.546;2023-11-21T17:41:21;5.76;5.23;
62631;PMS5003;48703;51.248;-0.546;2023-11-21T17:44:23;5.49;4.93;
62631;PMS5003;48703;51.248;-0.546;2023-11-21T17:47:25;5.34;4.40;
62631;PMS5003;48703;51.248;-0.546;2023-11-21T17:50:26;6.03;4.63;
62631;PMS5003;48703;51.248;-0.546;2023-11-21T17:53:28;4.24;3.24;
62631;PMS5003;48703;51.248;-0.546;2023-11-21T17:56:29;4.80;3.73;
62631;PMS5003;48703;51.248;-0.546;2023-11-21T17:59:31;4.34;3.63;
62631;PMS5003;48703;51.248;-0.546;2023-11-21T18:02:33;3.11;3.00;
62631;PMS5003;48703;51.248;-0.546;2023-11-21T18:05:34;3.39;2.83;
62631;PMS5003;48703;51.248;-0.546;2023-11-21T18:08:36;4.84;3.67;
62631;PMS5003;48703;51.248;-0.546;2023-11-21T18:11:38;5.16;3.43;
62631;PMS5003;48703;51.248;-0.546;2023-11-21T18:14:39;4.71;4.11;
62631;PMS5003;48703;51.248;-0.546;2023-11-21T18:17:41;4.64;4.21;
62631;PMS5003;48703;51.248;-0.546;2023-11-21T18:20:43;5.89;4.79;
62631;PMS5003;48703;51.248;-0.546;2023-11-21T18:23:44;5.66;4.96;
62631;PMS5003;48703;51.248;-0.546;2023-11-21T18:26:46;5.07;4.26;
62631;PMS5003;48703;51.248;-0.546;2023-11-21T18:29:48;3.00;2.74;